Time;durP1;ratioP1;P1;durP2;ratioP2;P2;SDS_P1;SDS_P2;PMS_P1;PMS_P2;Temp;Humidity;BMP_temperature;BMP_pressure;BME280_temperature;BME280_humidity;BME280_pressure;Samples;Min_cycle;Max_cycle;Signal;HPM_P1;HPM_P2
2021/07/26 00:00:36;;;;;;;;;13.33;11.33;;;;;;;;5120552;27;45264;-77
2021/07/26 00:03:01;;;;;;;;;10.33;10.33;;;;;;;;5120203;27;45287;-78
2021/07/26 00:05:27;;;;;;;;;10.00;9.67;;;;;;;;5121655;27;45491;-78
2021/07/26 00:07:52;;;;;;;;;11.33;10.67;;;;;;;;5120053;27;47892;-78
2021/07/26 00:10:17;;;;;;;;;10.33;10.33;;;;;;;;5121671;27;45212;-77
2021/07/26 00:12:42;;;;;;;;;11.67;11.33;;;;;;;;5121845;27;45272;-78
2021/07/26 00:15:08;;;;;;;;;14.33;12.00;;;;;;;;5121358;27;45570;-77
2021/07/26 00:17:33;;;;;;;;;13.00;13.00;;;;;;;;5121207;27;45313;-77
2021/07/26 00:19:58;;;;;;;;;13.33;12.00;;;;;;;;5121527;27;45162;-77
2021/07/26 00:22:23;;;;;;;;;10.67;10.67;;;;;;;;5121439;27;45504;-77
2021/07/26 00:24:49;;;;;;;;;14.67;11.33;;;;;;;;5121425;27;45148;-77
2021/07/26 00:27:14;;;;;;;;;13.33;12.33;;;;;;;;5121287;27;45286;-77
2021/07/26 00:29:39;;;;;;;;;14.67;13.67;;;;;;;;5124366;27;45280;-77
2021/07/26 00:32:04;;;;;;;;;14.67;14.67;;;;;;;;5140938;27;45254;-76
2021/07/26 00:34:30;;;;;;;;;17.33;15.00;;;;;;;;5140477;27;47621;-76
2021/07/26 00:36:56;;;;;;;;;13.33;12.00;;;;;;;;5141546;27;45440;-76
2021/07/26 00:39:23;;;;;;;;;11.00;10.00;;;;;;;;5140398;27;45348;-76
2021/07/26 00:41:48;;;;;;;;;13.33;12.33;;;;;;;;5141811;27;45306;-76
2021/07/26 00:44:15;;;;;;;;;14.33;13.00;;;;;;;;5141650;27;45297;-76
2021/07/26 00:46:41;;;;;;;;;14.67;14.67;;;;;;;;5141450;27;46292;-76
2021/07/26 00:49:08;;;;;;;;;12.67;12.00;;;;;;;;5141787;27;45160;-75
2021/07/26 00:51:34;;;;;;;;;13.00;10.33;;;;;;;;5140459;27;45219;-76
2021/07/26 00:53:59;;;;;;;;;11.00;11.00;;;;;;;;5140140;27;45424;-76
2021/07/26 00:56:25;;;;;;;;;16.00;15.00;;;;;;;;5141631;27;45510;-76
2021/07/26 00:58:50;;;;;;;;;14.00;13.33;;;;;;;;5141607;27;45388;-76
2021/07/26 01:01:17;;;;;;;;;13.67;12.00;;;;;;;;5140444;27;45329;-76
2021/07/26 01:03:43;;;;;;;;;16.33;16.00;;;;;;;;5141344;27;45599;-76
2021/07/26 01:06:08;;;;;;;;;12.00;12.00;;;;;;;;5141423;27;45278;-76
2021/07/26 01:08:34;;;;;;;;;13.67;12.00;;;;;;;;5141586;27;45254;-76
2021/07/26 01:10:59;;;;;;;;;11.67;11.00;;;;;;;;5141759;27;45236;-76
2021/07/26 01:13:26;;;;;;;;;13.67;13.67;;;;;;;;5140200;27;45939;-76
2021/07/26 01:15:51;;;;;;;;;10.00;9.00;;;;;;;;5141178;27;45356;-75
2021/07/26 01:18:24;;;;;;;;;11.00;10.00;;;;;;;;5141180;27;45218;-76
2021/07/26 01:20:49;;;;;;;;;12.33;12.00;;;;;;;;5140288;27;45267;-76
2021/07/26 01:23:14;;;;;;;;;11.67;10.67;;;;;;;;5141164;27;45176;-76
2021/07/26 01:25:39;;;;;;;;;9.00;7.67;;;;;;;;5141379;27;45317;-75
2021/07/26 01:28:05;;;;;;;;;8.00;8.00;;;;;;;;5140174;27;45794;-76
2021/07/26 01:30:31;;;;;;;;;11.00;10.00;;;;;;;;5130914;27;45503;-76
2021/07/26 01:32:57;;;;;;;;;9.00;9.00;;;;;;;;5118890;27;46485;-76
2021/07/26 01:35:22;;;;;;;;;11.33;10.00;;;;;;;;5120166;27;46280;-76
2021/07/26 01:37:47;;;;;;;;;9.00;9.00;;;;;;;;5120346;27;45227;-76
2021/07/26 01:40:12;;;;;;;;;9.00;9.00;;;;;;;;5120587;27;45489;-76
2021/07/26 01:42:42;;;;;;;;;11.00;11.00;;;;;;;;5120239;27;45916;-76
2021/07/26 01:45:07;;;;;;;;;9.00;9.00;;;;;;;;5122399;27;47308;-76
2021/07/26 01:47:34;;;;;;;;;7.00;7.00;;;;;;;;5123574;27;45263;-76
2021/07/26 01:50:05;;;;;;;;;10.00;8.00;;;;;;;;5124017;27;45239;-76
2021/07/26 01:52:30;;;;;;;;;10.00;10.00;;;;;;;;5122072;27;46486;-76
2021/07/26 01:54:55;;;;;;;;;7.00;7.00;;;;;;;;5122354;27;48565;-76
2021/07/26 01:57:21;;;;;;;;;10.00;10.00;;;;;;;;5123722;27;45323;-76
2021/07/26 01:59:47;;;;;;;;;10.67;9.33;;;;;;;;5123786;27;45288;-76
2021/07/26 02:02:12;;;;;;;;;8.00;6.67;;;;;;;;5122025;27;46386;-76
2021/07/26 02:04:37;;;;;;;;;9.00;9.00;;;;;;;;5122189;27;48428;-76
2021/07/26 02:07:02;;;;;;;;;8.33;8.33;;;;;;;;5123495;27;45347;-76
2021/07/26 02:09:27;;;;;;;;;8.67;8.67;;;;;;;;5123825;27;45335;-76
2021/07/26 02:11:53;;;;;;;;;8.00;7.67;;;;;;;;5123458;27;45640;-76
2021/07/26 02:14:18;;;;;;;;;7.67;7.00;;;;;;;;5123166;27;46256;-76
2021/07/26 02:16:49;;;;;;;;;8.00;8.00;;;;;;;;5123151;27;45285;-76
2021/07/26 02:19:14;;;;;;;;;8.67;8.67;;;;;;;;5123397;27;45323;-76
2021/07/26 02:21:39;;;;;;;;;6.67;6.67;;;;;;;;5123176;27;45328;-76
2021/07/26 02:24:07;;;;;;;;;7.33;7.33;;;;;;;;5123271;27;46136;-76
2021/07/26 02:26:32;;;;;;;;;7.33;7.33;;;;;;;;5122105;27;45257;-76
2021/07/26 02:28:58;;;;;;;;;8.67;8.67;;;;;;;;5123336;27;45427;-76
2021/07/26 02:31:23;;;;;;;;;8.00;8.00;;;;;;;;5141146;27;45242;-76
2021/07/26 02:33:48;;;;;;;;;9.00;8.33;;;;;;;;5143740;27;46370;-76
2021/07/26 02:36:13;;;;;;;;;7.00;7.00;;;;;;;;5143787;27;45227;-76
2021/07/26 02:38:39;;;;;;;;;8.00;8.00;;;;;;;;5143973;27;45302;-76
2021/07/26 02:41:14;;;;;;;;;9.33;9.00;;;;;;;;5143838;27;45486;-76
2021/07/26 02:43:39;;;;;;;;;12.33;9.33;;;;;;;;5143881;27;45911;-76
2021/07/26 02:46:06;;;;;;;;;13.00;12.33;;;;;;;;5142202;27;45240;-76
2021/07/26 02:48:34;;;;;;;;;9.00;9.00;;;;;;;;5143763;27;45301;-76
2021/07/26 02:50:59;;;;;;;;;14.33;12.33;;;;;;;;5142293;27;46532;-76
2021/07/26 02:53:24;;;;;;;;;12.33;12.33;;;;;;;;5142930;27;45262;-76
2021/07/26 02:55:49;;;;;;;;;14.00;14.00;;;;;;;;5143123;27;45308;-76
2021/07/26 02:58:15;;;;;;;;;14.67;14.00;;;;;;;;5142177;27;45307;-76
2021/07/26 03:00:40;;;;;;;;;17.00;16.00;;;;;;;;5142304;27;46031;-76
2021/07/26 03:03:05;;;;;;;;;15.33;15.33;;;;;;;;5143193;27;46122;-76
2021/07/26 03:05:33;;;;;;;;;17.00;17.00;;;;;;;;5143415;27;45374;-76
2021/07/26 03:07:58;;;;;;;;;15.67;14.00;;;;;;;;5143602;27;45310;-76
2021/07/26 03:10:24;;;;;;;;;17.00;16.67;;;;;;;;5143169;27;45534;-77
2021/07/26 03:12:49;;;;;;;;;17.67;17.67;;;;;;;;5143385;27;46046;-76
2021/07/26 03:15:14;;;;;;;;;16.67;16.67;;;;;;;;5143095;27;45292;-76
2021/07/26 03:17:39;;;;;;;;;19.00;17.00;;;;;;;;5141701;27;45203;-76
2021/07/26 03:20:08;;;;;;;;;19.33;17.33;;;;;;;;5141829;27;47371;-76
2021/07/26 03:22:54;;;;;;;;;17.67;17.33;;;;;;;;5142885;27;45326;-76
2021/07/26 03:25:19;;;;;;;;;19.00;17.33;;;;;;;;5141660;27;45186;-76
2021/07/26 03:27:48;;;;;;;;;17.33;16.67;;;;;;;;5143163;27;45331;-76
2021/07/26 03:30:13;;;;;;;;;18.33;17.00;;;;;;;;5134944;27;45312;-76
2021/07/26 03:32:38;;;;;;;;;20.33;20.33;;;;;;;;5121731;27;46329;-76
2021/07/26 03:35:04;;;;;;;;;20.67;18.00;;;;;;;;5122057;27;45352;-77
2021/07/26 03:37:29;;;;;;;;;22.00;17.00;;;;;;;;5122030;27;45465;-77
2021/07/26 03:39:54;;;;;;;;;22.33;18.67;;;;;;;;5122073;27;45801;-76
2021/07/26 03:42:20;;;;;;;;;16.67;16.67;;;;;;;;5122062;27;46735;-77
2021/07/26 03:44:45;;;;;;;;;18.33;17.67;;;;;;;;5121960;27;45279;-76
2021/07/26 03:47:10;;;;;;;;;15.67;15.67;;;;;;;;5121943;27;45540;-77
2021/07/26 03:49:35;;;;;;;;;17.67;17.67;;;;;;;;5121969;27;45362;-76
2021/07/26 03:52:00;;;;;;;;;16.67;16.33;;;;;;;;5121683;27;45343;-76
2021/07/26 03:54:26;;;;;;;;;20.00;17.67;;;;;;;;5121917;27;45231;-76
2021/07/26 03:56:55;;;;;;;;;19.67;19.67;;;;;;;;5121991;27;45217;-76
2021/07/26 03:59:20;;;;;;;;;15.00;15.00;;;;;;;;5121760;27;45296;-76
2021/07/26 04:01:45;;;;;;;;;17.67;17.33;;;;;;;;5121404;27;45288;-76
2021/07/26 04:04:10;;;;;;;;;18.67;17.67;;;;;;;;5121692;27;45292;-76
2021/07/26 04:06:39;;;;;;;;;19.67;16.67;;;;;;;;5121573;27;45579;-77
2021/07/26 04:09:06;;;;;;;;;15.67;15.33;;;;;;;;5121584;27;45337;-77
2021/07/26 04:11:36;;;;;;;;;18.00;18.00;;;;;;;;5121468;27;47051;-77
2021/07/26 04:14:03;;;;;;;;;20.33;19.33;;;;;;;;5121148;27;45251;-77
2021/07/26 04:16:28;;;;;;;;;17.00;17.00;;;;;;;;5121490;27;45459;-77
2021/07/26 04:18:56;;;;;;;;;18.67;18.00;;;;;;;;5120035;27;46084;-77
2021/07/26 04:21:27;;;;;;;;;20.67;20.67;;;;;;;;5121205;27;47200;-77
2021/07/26 04:23:52;;;;;;;;;15.67;15.00;;;;;;;;5121449;27;45313;-77
2021/07/26 04:26:17;;;;;;;;;18.33;17.33;;;;;;;;5121359;27;45576;-76
2021/07/26 04:28:43;;;;;;;;;17.33;17.33;;;;;;;;5120085;27;46267;-77
2021/07/26 04:31:08;;;;;;;;;15.00;14.33;;;;;;;;5136952;27;45447;-77
2021/07/26 04:33:33;;;;;;;;;16.00;15.00;;;;;;;;5141871;27;45290;-77
2021/07/26 04:36:01;;;;;;;;;21.67;18.33;;;;;;;;5142022;27;45278;-76
2021/07/26 04:38:26;;;;;;;;;21.33;20.00;;;;;;;;5141774;27;45417;-77
2021/07/26 04:40:51;;;;;;;;;17.33;17.33;;;;;;;;5140334;27;47054;-77
2021/07/26 04:43:16;;;;;;;;;16.33;16.33;;;;;;;;5141900;27;45276;-77
2021/07/26 04:45:41;;;;;;;;;17.67;17.33;;;;;;;;5141785;27;45433;-77
2021/07/26 04:48:07;;;;;;;;;19.67;16.67;;;;;;;;5141675;27;45253;-77
2021/07/26 04:50:33;;;;;;;;;13.00;12.67;;;;;;;;5141888;27;45282;-76
2021/07/26 04:52:58;;;;;;;;;15.67;15.67;;;;;;;;5141654;27;45245;-76
2021/07/26 04:55:24;;;;;;;;;15.00;14.00;;;;;;;;5141943;27;45205;-77
2021/07/26 04:57:50;;;;;;;;;19.33;18.33;;;;;;;;5141665;27;45491;-76
2021/07/26 05:00:15;;;;;;;;;17.67;17.00;;;;;;;;5141498;27;45318;-76
2021/07/26 05:02:40;;;;;;;;;20.33;19.00;;;;;;;;5140091;27;45820;-76
2021/07/26 05:05:06;;;;;;;;;20.67;16.67;;;;;;;;5141670;27;45489;-76
2021/07/26 05:07:31;;;;;;;;;20.33;18.67;;;;;;;;5141507;27;45276;-76
2021/07/26 05:09:56;;;;;;;;;19.67;18.67;;;;;;;;5141390;27;45286;-76
2021/07/26 05:12:22;;;;;;;;;18.67;17.00;;;;;;;;5141626;27;45284;-76
2021/07/26 05:14:47;;;;;;;;;15.33;15.33;;;;;;;;5141417;27;45321;-76
2021/07/26 05:17:13;;;;;;;;;20.33;19.00;;;;;;;;5140565;27;46167;-76
2021/07/26 05:19:39;;;;;;;;;18.00;18.00;;;;;;;;5145056;27;46067;-76
2021/07/26 05:22:05;;;;;;;;;19.00;18.00;;;;;;;;5144806;27;45312;-76
2021/07/26 05:24:30;;;;;;;;;17.00;16.00;;;;;;;;5145175;27;45307;-77
2021/07/26 05:26:56;;;;;;;;;19.67;18.00;;;;;;;;5145015;27;45230;-76
2021/07/26 05:29:21;;;;;;;;;14.00;14.00;;;;;;;;5144290;27;45218;-76
2021/07/26 05:31:46;;;;;;;;;18.00;18.00;;;;;;;;5124014;27;45282;-76
2021/07/26 05:34:11;;;;;;;;;17.67;17.67;;;;;;;;5122987;27;45553;-76
2021/07/26 05:36:36;;;;;;;;;20.67;18.33;;;;;;;;5123881;27;45365;-77
2021/07/26 05:39:02;;;;;;;;;19.33;18.67;;;;;;;;5123921;27;45218;-76
2021/07/26 05:41:27;;;;;;;;;17.67;17.67;;;;;;;;5124084;27;45116;-76
2021/07/26 05:43:52;;;;;;;;;18.67;18.33;;;;;;;;5124105;27;45211;-77
2021/07/26 05:46:17;;;;;;;;;20.00;19.67;;;;;;;;5123746;27;45261;-77
2021/07/26 05:48:43;;;;;;;;;21.00;20.00;;;;;;;;5123655;27;45290;-77
2021/07/26 05:51:09;;;;;;;;;21.00;18.67;;;;;;;;5123858;27;45213;-77
2021/07/26 05:53:35;;;;;;;;;18.00;16.67;;;;;;;;5123875;27;45355;-77
2021/07/26 05:56:03;;;;;;;;;20.00;18.33;;;;;;;;5123694;27;45410;-77
2021/07/26 05:58:30;;;;;;;;;15.33;14.67;;;;;;;;5123529;27;47066;-77
2021/07/26 06:01:11;;;;;;;;;18.00;15.67;;;;;;;;5123691;27;45280;-77
2021/07/26 06:03:36;;;;;;;;;19.33;19.33;;;;;;;;5123392;27;45281;-77
2021/07/26 06:06:04;;;;;;;;;18.33;18.00;;;;;;;;5123540;27;45264;-77
2021/07/26 06:08:29;;;;;;;;;17.33;15.67;;;;;;;;5123352;27;46116;-77
2021/07/26 06:10:54;;;;;;;;;18.67;16.00;;;;;;;;5123605;27;45325;-77
2021/07/26 06:13:20;;;;;;;;;18.67;18.00;;;;;;;;5123598;27;45167;-77
2021/07/26 06:15:45;;;;;;;;;15.33;13.67;;;;;;;;5121993;27;45855;-77
2021/07/26 06:18:10;;;;;;;;;19.33;16.33;;;;;;;;5123112;27;46322;-77
2021/07/26 06:20:35;;;;;;;;;19.33;16.67;;;;;;;;5121894;27;45339;-77
2021/07/26 06:23:00;;;;;;;;;19.00;17.00;;;;;;;;5123410;27;45340;-77
2021/07/26 06:25:26;;;;;;;;;18.00;16.00;;;;;;;;5123377;27;45209;-77
2021/07/26 06:27:52;;;;;;;;;17.00;14.33;;;;;;;;5123199;27;45254;-77
2021/07/26 06:30:17;;;;;;;;;17.67;17.00;;;;;;;;5130317;27;45318;-78
2021/07/26 06:32:42;;;;;;;;;17.00;15.67;;;;;;;;5143864;27;45271;-77
2021/07/26 06:35:07;;;;;;;;;16.00;16.00;;;;;;;;5144026;27;45149;-77
2021/07/26 06:37:32;;;;;;;;;19.00;18.67;;;;;;;;5143588;27;46043;-77
2021/07/26 06:39:58;;;;;;;;;14.00;13.33;;;;;;;;5143848;27;45257;-77
2021/07/26 06:42:23;;;;;;;;;17.00;17.00;;;;;;;;5142678;27;45281;-77
2021/07/26 06:44:48;;;;;;;;;12.33;12.33;;;;;;;;5143603;27;45219;-77
2021/07/26 06:47:15;;;;;;;;;16.67;16.00;;;;;;;;5143483;27;45199;-77
2021/07/26 06:49:40;;;;;;;;;17.33;16.67;;;;;;;;5143711;27;45312;-77
2021/07/26 06:52:06;;;;;;;;;15.00;15.00;;;;;;;;5143644;27;45475;-76
2021/07/26 06:54:31;;;;;;;;;16.67;15.67;;;;;;;;5142160;27;46314;-77
2021/07/26 06:56:56;;;;;;;;;14.00;14.00;;;;;;;;5142275;27;48220;-76
2021/07/26 06:59:21;;;;;;;;;16.00;15.67;;;;;;;;5143376;27;45331;-76
2021/07/26 07:01:47;;;;;;;;;15.00;13.33;;;;;;;;5143403;27;45311;-76
2021/07/26 07:04:13;;;;;;;;;14.00;13.67;;;;;;;;5143497;27;45296;-76
2021/07/26 07:06:39;;;;;;;;;11.33;11.33;;;;;;;;5143175;27;46060;-77
2021/07/26 07:09:05;;;;;;;;;11.00;10.00;;;;;;;;5143379;27;45267;-77
2021/07/26 07:11:30;;;;;;;;;13.00;12.33;;;;;;;;5142217;27;45298;-77
2021/07/26 07:13:57;;;;;;;;;11.00;11.00;;;;;;;;5143210;27;45185;-77
2021/07/26 07:16:23;;;;;;;;;14.33;12.67;;;;;;;;5142989;27;45268;-77
2021/07/26 07:18:50;;;;;;;;;13.67;13.00;;;;;;;;5143206;27;45209;-77
2021/07/26 07:21:19;;;;;;;;;13.33;13.33;;;;;;;;5143208;27;45363;-77
2021/07/26 07:23:45;;;;;;;;;15.33;13.00;;;;;;;;5143174;27;45237;-76
2021/07/26 07:26:11;;;;;;;;;12.33;10.00;;;;;;;;5143065;27;45268;-76
2021/07/26 07:28:37;;;;;;;;;13.00;11.33;;;;;;;;5143066;27;45269;-76
2021/07/26 07:31:02;;;;;;;;;12.00;11.00;;;;;;;;5128202;27;45214;-76
2021/07/26 07:33:27;;;;;;;;;12.00;12.00;;;;;;;;5121840;27;45361;-76
2021/07/26 07:35:53;;;;;;;;;12.67;12.67;;;;;;;;5122056;27;45278;-75
2021/07/26 07:38:18;;;;;;;;;11.33;10.67;;;;;;;;5121954;27;45229;-76
2021/07/26 07:40:43;;;;;;;;;9.67;9.67;;;;;;;;5121746;27;45188;-76
2021/07/26 07:43:09;;;;;;;;;10.67;10.67;;;;;;;;5122117;27;45044;-75
2021/07/26 07:45:34;;;;;;;;;11.33;11.33;;;;;;;;5121819;27;45340;-75
2021/07/26 07:47:59;;;;;;;;;11.33;10.33;;;;;;;;5121981;27;45220;-75
2021/07/26 07:50:25;;;;;;;;;13.00;11.67;;;;;;;;5122111;27;45197;-75
2021/07/26 07:52:50;;;;;;;;;16.33;13.33;;;;;;;;5121757;27;45379;-75
2021/07/26 07:55:15;;;;;;;;;17.33;15.33;;;;;;;;5121849;27;45299;-75
2021/07/26 07:57:41;;;;;;;;;16.00;14.00;;;;;;;;5121848;27;45528;-75
2021/07/26 08:00:08;;;;;;;;;13.00;12.33;;;;;;;;5121916;27;45327;-75
2021/07/26 08:02:34;;;;;;;;;14.67;13.33;;;;;;;;5121666;27;45343;-74
2021/07/26 08:04:59;;;;;;;;;15.00;15.00;;;;;;;;5120315;27;47397;-75
2021/07/26 08:07:24;;;;;;;;;18.33;15.33;;;;;;;;5121629;27;45324;-75
2021/07/26 08:09:49;;;;;;;;;14.67;14.67;;;;;;;;5121795;27;45599;-75
2021/07/26 08:12:15;;;;;;;;;16.00;16.00;;;;;;;;5121575;27;45543;-75
2021/07/26 08:14:40;;;;;;;;;13.00;12.67;;;;;;;;5119863;27;47454;-75
2021/07/26 08:17:05;;;;;;;;;16.33;15.00;;;;;;;;5121369;27;45269;-74
2021/07/26 08:19:30;;;;;;;;;15.00;14.33;;;;;;;;5121644;27;45270;-75
2021/07/26 08:21:57;;;;;;;;;21.67;18.67;;;;;;;;5121404;27;46525;-77
2021/07/26 08:24:22;;;;;;;;;15.33;14.67;;;;;;;;5121263;27;46172;-77
2021/07/26 08:26:47;;;;;;;;;12.00;11.00;;;;;;;;5121479;27;45343;-75
2021/07/26 08:29:12;;;;;;;;;11.67;11.67;;;;;;;;5120027;27;45357;-77
2021/07/26 08:31:38;;;;;;;;;14.00;13.67;;;;;;;;5141085;27;45676;-76
2021/07/26 08:34:03;;;;;;;;;14.33;13.00;;;;;;;;5140593;27;47333;-76
2021/07/26 08:36:28;;;;;;;;;14.00;12.00;;;;;;;;5141782;27;45291;-76
2021/07/26 08:38:53;;;;;;;;;14.00;13.00;;;;;;;;5140659;27;45272;-76
2021/07/26 08:41:20;;;;;;;;;15.00;14.00;;;;;;;;5140573;27;47000;-76
2021/07/26 08:43:45;;;;;;;;;16.33;13.33;;;;;;;;5141833;27;45254;-76
2021/07/26 08:46:10;;;;;;;;;14.33;14.33;;;;;;;;5140171;27;45326;-76
2021/07/26 08:48:36;;;;;;;;;17.00;17.00;;;;;;;;5141758;27;45331;-76
2021/07/26 08:51:02;;;;;;;;;20.00;19.00;;;;;;;;5141853;27;45330;-76
2021/07/26 08:53:27;;;;;;;;;19.33;19.33;;;;;;;;5139340;27;46387;-77
2021/07/26 08:55:54;;;;;;;;;18.33;18.00;;;;;;;;5141719;27;45239;-77
2021/07/26 08:58:20;;;;;;;;;18.00;18.00;;;;;;;;5141800;27;45308;-77
2021/07/26 09:00:45;;;;;;;;;18.00;17.33;;;;;;;;5141534;27;45502;-77
2021/07/26 09:03:10;;;;;;;;;16.33;15.33;;;;;;;;5141500;27;45264;-77
2021/07/26 09:05:35;;;;;;;;;20.67;17.33;;;;;;;;5141600;27;45223;-77
2021/07/26 09:08:01;;;;;;;;;20.33;20.33;;;;;;;;5141732;27;45136;-77
2021/07/26 09:10:27;;;;;;;;;20.00;19.33;;;;;;;;5141547;27;45534;-77
2021/07/26 09:12:53;;;;;;;;;17.00;16.00;;;;;;;;5140037;27;47528;-76
2021/07/26 09:15:30;;;;;;;;;19.67;18.00;;;;;;;;5141380;27;45292;-76
2021/07/26 09:17:57;;;;;;;;;26.67;25.00;;;;;;;;5141204;27;45385;-76
2021/07/26 09:20:28;;;;;;;;;23.33;21.67;;;;;;;;5141370;27;45313;-74
2021/07/26 09:22:53;;;;;;;;;22.33;21.67;;;;;;;;5141061;27;46283;-76
2021/07/26 09:25:20;;;;;;;;;19.67;17.00;;;;;;;;5141346;27;45281;-76
2021/07/26 09:27:58;;;;;;;;;25.33;23.67;;;;;;;;5141564;27;45348;-76
2021/07/26 09:30:24;;;;;;;;;19.00;18.67;;;;;;;;5131585;27;45303;-77
2021/07/26 09:32:50;;;;;;;;;22.33;21.00;;;;;;;;5118820;27;48177;-76
2021/07/26 09:35:15;;;;;;;;;24.67;21.00;;;;;;;;5120373;27;45314;-76
2021/07/26 09:37:40;;;;;;;;;22.00;20.00;;;;;;;;5120304;27;45541;-76
2021/07/26 09:40:19;;;;;;;;;29.67;26.00;;;;;;;;5120418;27;45206;-76
2021/07/26 09:42:44;;;;;;;;;21.33;21.33;;;;;;;;5120363;27;45287;-76
2021/07/26 09:45:19;;;;;;;;;23.00;23.00;;;;;;;;5120077;27;45268;-76
2021/07/26 09:47:44;;;;;;;;;23.00;22.00;;;;;;;;5120257;27;45231;-77
2021/07/26 09:50:11;;;;;;;;;22.67;21.00;;;;;;;;5120208;27;45198;-77
2021/07/26 09:52:36;;;;;;;;;20.00;19.33;;;;;;;;5120116;27;45544;-76
2021/07/26 09:55:02;;;;;;;;;17.67;17.00;;;;;;;;5120248;27;45324;-77
2021/07/26 09:57:27;;;;;;;;;18.33;17.00;;;;;;;;5119010;27;45379;-75
2021/07/26 09:59:53;;;;;;;;;18.00;17.00;;;;;;;;5120153;27;45528;-76
2021/07/26 10:02:19;;;;;;;;;16.00;16.00;;;;;;;;5119860;27;45365;-76
2021/07/26 10:04:45;;;;;;;;;17.67;17.00;;;;;;;;5123194;27;45327;-76
2021/07/26 10:07:11;;;;;;;;;17.00;17.00;;;;;;;;5122453;27;45185;-76
2021/07/26 10:09:39;;;;;;;;;13.33;13.33;;;;;;;;5123555;27;45293;-76
2021/07/26 10:12:04;;;;;;;;;14.67;13.00;;;;;;;;5123436;27;46123;-75
2021/07/26 10:14:30;;;;;;;;;15.33;15.00;;;;;;;;5121768;27;45856;-76
2021/07/26 10:16:59;;;;;;;;;13.67;13.33;;;;;;;;5123475;27;45355;-76
2021/07/26 10:19:24;;;;;;;;;16.67;16.00;;;;;;;;5123251;27;45426;-75
2021/07/26 10:21:52;;;;;;;;;16.67;14.33;;;;;;;;5121891;27;47085;-76
2021/07/26 10:24:18;;;;;;;;;14.67;14.33;;;;;;;;5123243;27;45357;-76
2021/07/26 10:26:45;;;;;;;;;15.67;14.67;;;;;;;;5123379;27;45262;-77
2021/07/26 10:29:10;;;;;;;;;16.67;15.67;;;;;;;;5123176;27;45952;-76
2021/07/26 10:31:37;;;;;;;;;15.00;15.00;;;;;;;;5142088;27;46353;-75
2021/07/26 10:34:15;;;;;;;;;17.00;13.67;;;;;;;;5142650;27;45327;-77
2021/07/26 10:36:41;;;;;;;;;18.00;18.00;;;;;;;;5142223;27;45330;-76
2021/07/26 10:39:16;;;;;;;;;20.00;18.67;;;;;;;;5143910;27;45244;-76
2021/07/26 10:41:44;;;;;;;;;16.00;15.00;;;;;;;;5143688;27;45318;-77
2021/07/26 10:44:29;;;;;;;;;16.00;15.00;;;;;;;;5143995;27;45280;-77
2021/07/26 10:47:07;;;;;;;;;17.33;16.67;;;;;;;;5143402;27;45537;-76
2021/07/26 10:49:32;;;;;;;;;20.67;17.67;;;;;;;;5143565;27;45261;-76
2021/07/26 10:51:57;;;;;;;;;15.00;14.00;;;;;;;;5143510;27;45309;-77
2021/07/26 10:54:32;;;;;;;;;13.00;13.00;;;;;;;;5143654;27;45300;-76
2021/07/26 10:57:05;;;;;;;;;14.33;14.33;;;;;;;;5142478;27;45326;-76
2021/07/26 10:59:31;;;;;;;;;15.67;15.00;;;;;;;;5143400;27;46278;-77
2021/07/26 11:01:57;;;;;;;;;18.00;15.67;;;;;;;;5143215;27;46339;-77
2021/07/26 11:04:53;;;;;;;;;19.67;18.00;;;;;;;;5143459;27;45324;-79
2021/07/26 11:07:28;;;;;;;;;18.67;17.67;;;;;;;;5142207;27;45496;-77
2021/07/26 11:09:54;;;;;;;;;21.67;18.00;;;;;;;;5143246;27;45485;-76
2021/07/26 11:12:38;;;;;;;;;16.33;16.33;;;;;;;;5143132;27;46252;-76
2021/07/26 11:15:12;;;;;;;;;20.33;19.33;;;;;;;;5142380;27;45388;-77
2021/07/26 11:17:57;;;;;;;;;16.00;11.67;;;;;;;;5143103;27;45443;-76
2021/07/26 11:20:41;;;;;;;;;21.00;20.00;;;;;;;;5141519;27;45331;-77
2021/07/26 11:23:06;;;;;;;;;22.00;19.67;;;;;;;;5142979;27;45318;-77
2021/07/26 11:25:33;;;;;;;;;18.00;16.67;;;;;;;;5143088;27;45355;-77
2021/07/26 11:27:59;;;;;;;;;21.33;20.67;;;;;;;;5143333;27;45275;-77
2021/07/26 11:30:26;;;;;;;;;19.67;18.00;;;;;;;;5133195;27;45578;-77
2021/07/26 11:32:53;;;;;;;;;22.00;20.67;;;;;;;;5121939;27;46059;-76
2021/07/26 11:35:18;;;;;;;;;21.00;19.67;;;;;;;;5121993;27;45210;-75
2021/07/26 11:37:43;;;;;;;;;21.00;18.67;;;;;;;;5120731;27;45276;-75
2021/07/26 11:40:09;;;;;;;;;20.33;20.00;;;;;;;;5122091;27;45238;-75
2021/07/26 11:42:41;;;;;;;;;20.33;19.33;;;;;;;;5121951;27;46059;-77
2021/07/26 11:45:08;;;;;;;;;19.33;19.00;;;;;;;;5121828;27;45276;-75
2021/07/26 11:47:40;;;;;;;;;22.00;21.33;;;;;;;;5120344;27;45308;-74
2021/07/26 11:50:07;;;;;;;;;20.67;20.67;;;;;;;;5121883;27;45210;-74
2021/07/26 11:52:32;;;;;;;;;20.67;20.67;;;;;;;;5121641;27;46458;-75
2021/07/26 11:54:57;;;;;;;;;18.00;16.67;;;;;;;;5121782;27;45186;-74
2021/07/26 11:57:22;;;;;;;;;17.00;17.00;;;;;;;;5122130;27;45194;-74
2021/07/26 11:59:52;;;;;;;;;23.33;20.33;;;;;;;;5121660;27;45576;-75
2021/07/26 12:02:23;;;;;;;;;17.33;17.00;;;;;;;;5121618;27;45360;-74
2021/07/26 12:04:48;;;;;;;;;17.67;17.67;;;;;;;;5121651;27;45269;-74
2021/07/26 12:07:14;;;;;;;;;15.67;15.00;;;;;;;;5121742;27;45184;-75
2021/07/26 12:09:47;;;;;;;;;16.33;16.33;;;;;;;;5121687;27;45202;-75
2021/07/26 12:12:14;;;;;;;;;19.33;18.00;;;;;;;;5120294;27;46080;-75
2021/07/26 12:14:40;;;;;;;;;20.67;20.33;;;;;;;;5121432;27;45194;-75
2021/07/26 12:17:09;;;;;;;;;21.00;19.67;;;;;;;;5121442;27;45534;-78
2021/07/26 12:19:43;;;;;;;;;17.33;17.33;;;;;;;;5121357;27;45301;-75
2021/07/26 12:22:12;;;;;;;;;23.33;20.67;;;;;;;;5121187;27;45327;-77
2021/07/26 12:24:47;;;;;;;;;17.00;16.67;;;;;;;;5121455;27;45217;-76
2021/07/26 12:27:24;;;;;;;;;21.33;19.67;;;;;;;;5121522;27;45429;-76
2021/07/26 12:29:53;;;;;;;;;26.33;24.67;;;;;;;;5124424;27;46792;-78
2021/07/26 12:32:18;;;;;;;;;27.33;26.67;;;;;;;;5140223;27;48494;-77
2021/07/26 12:35:03;;;;;;;;;23.67;21.67;;;;;;;;5141743;27;45304;-76
2021/07/26 12:37:28;;;;;;;;;23.33;20.00;;;;;;;;5141770;27;45488;-76
2021/07/26 12:40:10;;;;;;;;;22.67;20.00;;;;;;;;5141552;27;45396;-77
2021/07/26 12:42:35;;;;;;;;;19.67;17.00;;;;;;;;5140445;27;48418;-77
2021/07/26 12:45:16;;;;;;;;;19.33;17.67;;;;;;;;5141592;27;45324;-75
2021/07/26 12:47:42;;;;;;;;;7.33;7.00;;;;;;;;5141786;27;45265;-76
2021/07/26 12:50:08;;;;;;;;;7.33;7.00;;;;;;;;5141713;27;45523;-75
2021/07/26 12:52:33;;;;;;;;;7.00;6.67;;;;;;;;5141484;27;45290;-76
2021/07/26 12:54:58;;;;;;;;;8.33;7.67;;;;;;;;5141717;27;45207;-76
2021/07/26 12:57:25;;;;;;;;;11.33;11.00;;;;;;;;5141582;27;45519;-75
2021/07/26 12:59:50;;;;;;;;;11.00;11.00;;;;;;;;5141757;27;45709;-75
2021/07/26 13:02:15;;;;;;;;;10.33;9.33;;;;;;;;5141434;27;45489;-76
2021/07/26 13:04:40;;;;;;;;;4.67;4.67;;;;;;;;5141816;27;45311;-74
2021/07/26 13:07:05;;;;;;;;;9.67;9.33;;;;;;;;5141747;27;45308;-74
2021/07/26 13:09:31;;;;;;;;;12.00;10.00;;;;;;;;5141545;27;45278;-75
2021/07/26 13:11:56;;;;;;;;;12.00;11.33;;;;;;;;5140128;27;47357;-76
2021/07/26 13:14:21;;;;;;;;;11.00;9.33;;;;;;;;5141414;27;45335;-77
2021/07/26 13:16:46;;;;;;;;;13.00;12.67;;;;;;;;5141514;27;45470;-75
2021/07/26 13:19:12;;;;;;;;;17.33;17.33;;;;;;;;5140100;27;46069;-75
2021/07/26 13:21:37;;;;;;;;;15.33;13.67;;;;;;;;5141267;27;46114;-75
2021/07/26 13:24:02;;;;;;;;;18.00;17.67;;;;;;;;5141413;27;45313;-76
2021/07/26 13:26:28;;;;;;;;;13.67;12.33;;;;;;;;5141670;27;45483;-76
2021/07/26 13:28:53;;;;;;;;;13.33;12.67;;;;;;;;5141369;27;45331;-75
2021/07/26 13:31:18;;;;;;;;;15.67;15.00;;;;;;;;5123457;27;46206;-76
2021/07/26 13:33:43;;;;;;;;;16.33;16.33;;;;;;;;5119010;27;45325;-76
2021/07/26 13:36:08;;;;;;;;;20.00;18.00;;;;;;;;5120480;27;45314;-76
2021/07/26 13:38:35;;;;;;;;;18.67;18.00;;;;;;;;5120226;27;46188;-76
2021/07/26 13:41:00;;;;;;;;;17.00;17.00;;;;;;;;5124031;27;46529;-75
2021/07/26 13:43:25;;;;;;;;;16.67;15.33;;;;;;;;5123951;27;45268;-76
2021/07/26 13:45:51;;;;;;;;;16.67;16.33;;;;;;;;5123924;27;45392;-76
2021/07/26 13:48:17;;;;;;;;;18.67;18.67;;;;;;;;5123809;27;45344;-76
2021/07/26 13:50:42;;;;;;;;;19.33;17.67;;;;;;;;5123923;27;45248;-75
2021/07/26 13:53:07;;;;;;;;;23.00;23.00;;;;;;;;5122410;27;45331;-77
2021/07/26 13:55:32;;;;;;;;;20.67;17.00;;;;;;;;5124062;27;45358;-76
2021/07/26 13:57:57;;;;;;;;;21.33;19.33;;;;;;;;5123766;27;45395;-77
2021/07/26 14:00:23;;;;;;;;;20.67;19.00;;;;;;;;5123678;27;46673;-77
2021/07/26 14:02:48;;;;;;;;;13.00;13.00;;;;;;;;5123576;27;45219;-77
2021/07/26 14:05:14;;;;;;;;;15.67;15.33;;;;;;;;5123869;27;45523;-76
2021/07/26 14:07:39;;;;;;;;;18.67;17.00;;;;;;;;5123448;27;45231;-76
2021/07/26 14:10:06;;;;;;;;;15.00;14.00;;;;;;;;5122109;27;48265;-77
2021/07/26 14:12:31;;;;;;;;;14.00;14.00;;;;;;;;5123606;27;45390;-77
2021/07/26 14:14:56;;;;;;;;;17.67;17.33;;;;;;;;5123392;27;45258;-77